createdAt,value
2017-10-11T00:00:49.563Z,8.90
2017-10-11T00:03:17.852Z,9.00
2017-10-11T00:05:45.349Z,8.90
2017-10-11T00:08:12.867Z,8.90
2017-10-11T00:10:40.364Z,8.90
2017-10-11T00:13:07.868Z,8.90
2017-10-11T00:15:36.154Z,9.00
2017-10-11T00:18:04.410Z,9.00
2017-10-11T00:20:31.927Z,9.00
2017-10-11T00:22:59.427Z,9.00
2017-10-11T00:25:27.710Z,8.90
2017-10-11T00:27:55.983Z,8.90
2017-10-11T00:30:24.260Z,8.90
2017-10-11T00:32:52.523Z,8.70
2017-10-11T00:35:20.045Z,8.70
2017-10-11T00:37:48.304Z,8.70
2017-10-11T00:40:15.827Z,8.70
2017-10-11T00:42:44.095Z,8.70
2017-10-11T00:45:11.603Z,8.70
2017-10-11T00:47:39.108Z,8.60
2017-10-11T00:50:06.632Z,8.60
2017-10-11T00:52:34.140Z,8.60
2017-10-11T00:55:02.459Z,8.60
2017-10-11T00:57:29.955Z,8.50
2017-10-11T00:59:57.470Z,8.50
2017-10-11T01:02:24.963Z,8.50
2017-10-11T01:04:52.478Z,8.40
2017-10-11T01:07:19.975Z,8.40
2017-10-11T01:12:21.444Z,8.30
2017-10-11T01:14:48.961Z,8.30
2017-10-11T01:17:16.454Z,8.30
2017-10-11T01:19:43.967Z,8.30
2017-10-11T01:22:11.455Z,8.20
2017-10-11T01:24:38.969Z,8.20
2017-10-11T01:27:07.226Z,8.20
2017-10-11T01:29:34.739Z,8.20
2017-10-11T01:32:02.230Z,8.20
2017-10-11T01:34:29.767Z,8.10
2017-10-11T01:36:57.268Z,8.10
2017-10-11T01:39:25.547Z,8.00
2017-10-11T01:41:53.820Z,8.00
2017-10-11T01:44:22.104Z,8.00
2017-10-11T01:46:49.608Z,7.90
2017-10-11T01:49:17.128Z,7.90
2017-10-11T01:51:44.626Z,7.80
2017-10-11T01:54:12.148Z,7.80
2017-10-11T01:56:39.654Z,7.80
2017-10-11T01:59:07.167Z,7.70
2017-10-11T02:01:34.663Z,7.70
2017-10-11T02:04:02.178Z,7.60
2017-10-11T02:06:29.671Z,7.60
2017-10-11T02:08:57.183Z,7.60
2017-10-11T02:11:25.520Z,7.50
2017-10-11T02:13:53.043Z,7.50
2017-10-11T02:16:20.539Z,7.50
2017-10-11T02:18:48.071Z,7.50
2017-10-11T02:21:15.566Z,7.50
2017-10-11T02:23:43.059Z,7.40
2017-10-11T02:26:10.586Z,7.50
2017-10-11T02:28:38.865Z,7.40
2017-10-11T02:31:06.375Z,7.40
2017-10-11T02:33:33.867Z,7.40
2017-10-11T02:36:01.380Z,7.40
2017-10-11T02:38:28.880Z,7.40
2017-10-11T02:40:56.404Z,7.30
2017-10-11T02:43:23.907Z,7.30
2017-10-11T02:45:51.422Z,7.30
2017-10-11T02:48:18.916Z,7.30
2017-10-11T02:50:46.436Z,7.30
2017-10-11T02:53:13.943Z,7.30
2017-10-11T02:55:41.456Z,7.30
2017-10-11T02:58:08.951Z,7.30
2017-10-11T03:00:36.470Z,7.30
2017-10-11T03:03:03.967Z,7.30
2017-10-11T03:05:31.488Z,7.30
2017-10-11T03:07:58.974Z,7.30
2017-10-11T03:10:26.486Z,7.30
2017-10-11T03:12:53.985Z,7.20
2017-10-11T03:15:21.505Z,7.20
2017-10-11T03:17:49.003Z,7.20
2017-10-11T03:20:16.524Z,7.20
2017-10-11T03:22:44.024Z,7.30
2017-10-11T03:25:11.544Z,7.30
2017-10-11T03:27:39.046Z,7.30
2017-10-11T03:30:06.564Z,7.30
2017-10-11T03:32:34.903Z,7.40
2017-10-11T03:35:03.192Z,7.40
2017-10-11T03:37:30.792Z,7.40
2017-10-11T03:39:58.300Z,7.40
2017-10-11T03:42:26.575Z,7.40
2017-10-11T03:44:54.859Z,7.40
2017-10-11T03:47:23.123Z,7.40
2017-10-11T03:49:51.398Z,7.40
2017-10-11T03:52:19.659Z,7.40
2017-10-11T03:54:47.175Z,7.40
2017-10-11T03:57:14.670Z,7.40
2017-10-11T03:59:42.182Z,7.40
2017-10-11T04:02:09.680Z,7.40
2017-10-11T04:04:37.196Z,7.40
2017-10-11T04:07:04.692Z,7.40
2017-10-11T04:09:32.209Z,7.30
2017-10-11T04:11:59.708Z,7.30
2017-10-11T04:14:27.223Z,7.30
2017-10-11T04:16:54.719Z,7.30
2017-10-11T04:19:22.206Z,7.30
2017-10-11T04:21:50.489Z,7.40
2017-10-11T04:24:18.748Z,7.50
2017-10-11T04:26:46.261Z,7.40
2017-10-11T04:29:13.760Z,7.40
2017-10-11T04:31:41.273Z,7.40
2017-10-11T04:34:08.768Z,7.40
2017-10-11T04:36:36.278Z,7.40
2017-10-11T04:39:03.774Z,7.40
2017-10-11T04:41:31.297Z,7.40
2017-10-11T04:43:59.380Z,7.40
2017-10-11T04:46:26.903Z,7.30
2017-10-11T04:48:55.158Z,7.40
2017-10-11T04:51:22.671Z,7.30
2017-10-11T04:53:50.159Z,7.40
2017-10-11T04:56:17.672Z,7.40
2017-10-11T04:58:45.175Z,7.40
2017-10-11T05:01:12.687Z,7.50
2017-10-11T05:03:40.180Z,7.40
2017-10-11T05:06:07.698Z,7.40
2017-10-11T05:08:35.188Z,7.30
2017-10-11T05:11:02.698Z,7.40
2017-10-11T05:13:30.961Z,7.40
2017-10-11T05:15:58.475Z,7.30
2017-10-11T05:18:25.972Z,7.40
2017-10-11T05:20:53.483Z,7.40
2017-10-11T05:23:20.975Z,7.40
2017-10-11T05:25:48.487Z,7.40
2017-10-11T05:28:15.987Z,7.40
2017-10-11T05:30:43.499Z,7.30
2017-10-11T05:33:10.991Z,7.30
2017-10-11T05:35:38.655Z,7.40
2017-10-11T05:38:06.159Z,7.30
2017-10-11T05:40:34.440Z,7.30
2017-10-11T05:43:02.711Z,7.40
2017-10-11T05:45:30.986Z,7.40
2017-10-11T05:47:59.252Z,7.30
2017-10-11T05:50:27.536Z,7.40
2017-10-11T05:52:55.799Z,7.40
2017-10-11T05:55:24.080Z,7.40
2017-10-11T05:57:52.343Z,7.50
2017-10-11T06:00:19.862Z,7.50
2017-10-11T06:02:47.355Z,7.50
2017-10-11T06:05:14.871Z,7.50
2017-10-11T06:07:42.362Z,7.50
2017-10-11T06:10:09.874Z,7.60
2017-10-11T06:12:37.375Z,7.50
2017-10-11T06:15:05.660Z,7.70
2017-10-11T06:17:33.159Z,7.70
2017-10-11T06:20:00.679Z,7.70
2017-10-11T06:22:28.188Z,7.70
2017-10-11T06:24:55.727Z,7.80
2017-10-11T06:27:23.979Z,7.80
2017-10-11T06:29:51.470Z,7.80
2017-10-11T06:32:19.295Z,7.80
2017-10-11T06:34:46.796Z,7.90
2017-10-11T06:37:14.312Z,7.90
2017-10-11T06:39:41.814Z,8.00
2017-10-11T06:42:09.331Z,8.00
2017-10-11T06:44:36.835Z,8.10
2017-10-11T06:47:04.360Z,8.30
2017-10-11T06:49:32.622Z,8.50
2017-10-11T06:52:00.151Z,8.40
2017-10-11T06:54:27.650Z,8.60
2017-10-11T06:56:55.956Z,8.70
2017-10-11T06:59:23.460Z,8.80
2017-10-11T07:01:51.288Z,8.80
2017-10-11T07:04:18.786Z,8.90
2017-10-11T07:06:46.610Z,9.00
2017-10-11T07:09:14.107Z,9.00
2017-10-11T07:11:41.623Z,9.10
2017-10-11T07:14:09.123Z,9.30
2017-10-11T07:16:36.630Z,9.30
2017-10-11T07:19:04.133Z,9.50
2017-10-11T07:21:31.653Z,9.50
2017-10-11T07:23:59.166Z,9.60
2017-10-11T07:26:26.679Z,9.60
2017-10-11T07:28:54.178Z,9.70
2017-10-11T07:31:21.699Z,9.80
2017-10-11T07:33:49.196Z,9.90
2017-10-11T07:36:16.719Z,10.00
2017-10-11T07:38:44.219Z,10.10
2017-10-11T07:41:11.744Z,10.20
2017-10-11T07:43:39.246Z,10.30
2017-10-11T07:46:07.536Z,10.40
2017-10-11T07:48:35.799Z,10.50
2017-10-11T07:51:04.083Z,10.70
2017-10-11T07:53:32.346Z,10.90
2017-10-11T07:56:00.635Z,11.20
2017-10-11T07:58:28.903Z,11.40
2017-10-11T08:00:57.195Z,11.60
2017-10-11T08:03:24.698Z,11.60
2017-10-11T08:05:52.210Z,11.80
2017-10-11T08:08:19.789Z,12.00
2017-10-11T08:10:47.302Z,12.10
2017-10-11T08:13:14.805Z,12.20
2017-10-11T08:15:42.323Z,12.20
2017-10-11T08:18:10.595Z,12.20
2017-10-11T08:20:38.887Z,12.30
2017-10-11T08:23:07.147Z,12.30
2017-10-11T08:25:34.662Z,12.30
2017-10-11T08:28:02.158Z,12.40
2017-10-11T08:30:29.679Z,12.40
2017-10-11T08:32:57.175Z,12.60
2017-10-11T08:35:24.668Z,12.60
2017-10-11T08:37:52.202Z,12.80
2017-10-11T08:40:20.466Z,12.90
2017-10-11T08:42:48.210Z,12.90
2017-10-11T08:45:15.716Z,13.10
2017-10-11T08:47:43.230Z,13.10
2017-10-11T08:50:10.728Z,13.00
2017-10-11T08:52:38.247Z,12.90
2017-10-11T08:55:05.744Z,12.90
2017-10-11T08:57:33.267Z,13.00
2017-10-11T09:00:00.763Z,13.20
2017-10-11T09:02:28.279Z,13.20
2017-10-11T09:04:55.775Z,13.20
2017-10-11T09:07:24.054Z,13.50
2017-10-11T09:09:51.550Z,13.40
2017-10-11T09:12:19.062Z,13.70
2017-10-11T09:14:47.331Z,13.90
2017-10-11T09:17:15.610Z,14.10
2017-10-11T09:19:43.875Z,14.20
2017-10-11T09:22:11.391Z,14.20
2017-10-11T09:24:38.891Z,14.20
2017-10-11T09:27:07.179Z,14.40
2017-10-11T09:29:35.442Z,14.40
2017-10-11T09:32:02.963Z,14.40
2017-10-11T09:34:30.463Z,14.50
2017-10-11T09:36:58.747Z,14.90
2017-10-11T09:39:27.014Z,15.00
2017-10-11T09:41:55.298Z,15.10
2017-10-11T09:44:23.566Z,15.20
2017-10-11T09:46:51.858Z,15.30
2017-10-11T09:49:20.126Z,15.50
2017-10-11T09:51:48.680Z,15.60
2017-10-11T09:54:16.192Z,15.60
2017-10-11T09:56:43.714Z,15.90
2017-10-11T09:59:11.979Z,15.90
2017-10-11T10:01:39.494Z,15.90
2017-10-11T10:04:06.987Z,16.00
2017-10-11T10:06:34.515Z,16.00
2017-10-11T10:09:02.014Z,16.10
2017-10-11T10:11:29.531Z,16.10
2017-10-11T10:13:57.033Z,16.30
2017-10-11T10:16:24.556Z,16.30
2017-10-11T10:18:52.051Z,16.30
2017-10-11T10:21:20.351Z,16.20
2017-10-11T10:23:48.619Z,16.20
2017-10-11T10:26:16.903Z,16.50
2017-10-11T10:28:45.187Z,16.50
2017-10-11T10:31:12.711Z,16.50
2017-10-11T10:33:40.216Z,16.60
2017-10-11T10:36:07.734Z,16.80
2017-10-11T10:38:35.994Z,16.70
2017-10-11T10:41:03.523Z,16.70
2017-10-11T10:43:31.019Z,16.80
2017-10-11T10:45:58.532Z,16.80
2017-10-11T10:48:26.055Z,16.80
2017-10-11T10:50:54.318Z,16.70
2017-10-11T10:53:22.604Z,16.90
2017-10-11T10:55:50.872Z,17.00
2017-10-11T10:58:19.159Z,17.00
2017-10-11T11:00:47.423Z,16.90
2017-10-11T11:03:15.720Z,17.00
2017-10-11T11:05:43.219Z,16.90
2017-10-11T11:08:10.738Z,17.10
2017-10-11T11:10:38.236Z,17.10
2017-10-11T11:13:05.771Z,17.20
2017-10-11T11:15:33.280Z,17.00
2017-10-11T11:18:00.799Z,16.90
2017-10-11T11:20:28.295Z,17.00
2017-10-11T11:22:55.815Z,17.00
2017-10-11T11:25:23.311Z,17.00
2017-10-11T11:27:50.827Z,17.10
2017-10-11T11:30:18.323Z,17.20
2017-10-11T11:32:45.849Z,17.30
2017-10-11T11:35:13.350Z,17.50
2017-10-11T11:37:40.867Z,17.60
2017-10-11T11:40:08.363Z,17.40
2017-10-11T11:42:36.651Z,17.50
2017-10-11T11:45:04.918Z,17.60
2017-10-11T11:47:33.205Z,17.40
2017-10-11T11:50:01.477Z,17.40
2017-10-11T11:52:29.759Z,17.40
2017-10-11T11:54:58.019Z,17.40
2017-10-11T11:57:25.544Z,17.40
2017-10-11T11:59:53.047Z,17.40
2017-10-11T12:02:21.327Z,17.50
2017-10-11T12:04:49.600Z,17.60
2017-10-11T12:07:17.890Z,17.40
2017-10-11T12:09:45.395Z,17.40
2017-10-11T12:12:12.911Z,17.40
2017-10-11T12:14:40.414Z,17.40
2017-10-11T12:17:07.939Z,17.50
2017-10-11T12:19:35.430Z,17.50
2017-10-11T12:22:02.947Z,17.50
2017-10-11T12:24:30.452Z,17.50
2017-10-11T12:26:57.980Z,17.50
2017-10-11T12:29:25.475Z,17.50
2017-10-11T12:31:53.000Z,17.40
2017-10-11T12:34:20.503Z,17.50
2017-10-11T12:36:48.019Z,17.50
2017-10-11T12:39:15.527Z,17.60
2017-10-11T12:41:43.807Z,17.60
2017-10-11T12:44:12.067Z,17.70
2017-10-11T12:46:39.583Z,17.70
2017-10-11T12:49:07.082Z,17.60
2017-10-11T12:51:34.603Z,17.60
2017-10-11T12:54:02.111Z,17.60
2017-10-11T12:56:30.391Z,17.90
2017-10-11T12:58:58.671Z,17.70
2017-10-11T13:01:26.934Z,17.70
2017-10-11T13:03:55.216Z,17.70
2017-10-11T13:06:23.474Z,17.70
2017-10-11T13:08:50.998Z,17.60
2017-10-11T13:11:18.495Z,17.70
2017-10-11T13:13:46.016Z,17.70
2017-10-11T13:16:13.523Z,17.70
2017-10-11T13:18:41.799Z,17.60
2017-10-11T13:21:10.070Z,17.70
2017-10-11T13:23:38.354Z,17.70
2017-10-11T13:26:06.617Z,17.70
2017-10-11T13:28:34.143Z,17.70
2017-10-11T13:31:01.647Z,17.80
2017-10-11T13:33:29.923Z,17.70
2017-10-11T13:35:58.184Z,17.70
2017-10-11T13:38:25.701Z,17.70
2017-10-11T13:40:53.202Z,17.60
2017-10-11T13:43:20.727Z,17.70
2017-10-11T13:45:48.232Z,17.80
2017-10-11T13:48:16.512Z,17.90
2017-10-11T13:50:44.780Z,17.80
2017-10-11T13:53:13.064Z,17.80
2017-10-11T13:55:41.322Z,18.00
2017-10-11T13:58:08.848Z,18.00
2017-10-11T14:00:36.344Z,18.00
2017-10-11T14:03:04.631Z,17.90
2017-10-11T14:05:32.899Z,17.90
2017-10-11T14:08:01.187Z,17.90
2017-10-11T14:10:28.693Z,17.90
2017-10-11T14:12:56.215Z,17.90
2017-10-11T14:15:23.728Z,17.70
2017-10-11T14:17:51.250Z,17.70
2017-10-11T14:20:18.751Z,17.70
2017-10-11T14:22:46.270Z,17.70
2017-10-11T14:25:13.763Z,17.70
2017-10-11T14:27:41.285Z,17.80
2017-10-11T14:30:08.787Z,17.70
2017-10-11T14:32:36.304Z,17.70
2017-10-11T14:35:03.803Z,17.70
2017-10-11T14:37:31.408Z,17.60
2017-10-11T14:39:58.903Z,17.70
2017-10-11T14:42:26.437Z,17.50
2017-10-11T14:44:53.951Z,17.70
2017-10-11T14:47:22.240Z,17.70
2017-10-11T14:49:49.747Z,17.70
2017-10-11T14:52:17.279Z,17.80
2017-10-11T14:54:44.790Z,17.60
2017-10-11T14:57:12.315Z,17.40
2017-10-11T14:59:39.820Z,17.40
2017-10-11T15:02:08.107Z,17.50
2017-10-11T15:04:35.610Z,17.50
2017-10-11T15:07:03.121Z,17.50
2017-10-11T15:09:30.648Z,17.60
2017-10-11T15:11:58.147Z,17.70
2017-10-11T15:14:25.659Z,17.50
2017-10-11T15:16:53.164Z,17.40
2017-10-11T15:19:20.696Z,17.50
2017-10-11T15:21:48.968Z,17.30
2017-10-11T15:24:17.251Z,17.30
2017-10-11T15:26:45.515Z,17.20
2017-10-11T15:29:13.039Z,17.30
2017-10-11T15:31:40.545Z,17.00
2017-10-11T15:34:08.837Z,16.60
2017-10-11T15:36:36.343Z,16.60
2017-10-11T15:39:03.888Z,16.50
2017-10-11T15:41:31.396Z,16.50
2017-10-11T15:43:59.683Z,16.20
2017-10-11T15:46:27.182Z,16.20
2017-10-11T15:48:54.701Z,16.00
2017-10-11T15:51:22.202Z,15.90
2017-10-11T15:53:49.724Z,15.80
2017-10-11T15:56:17.245Z,15.60
2017-10-11T15:58:44.764Z,15.50
2017-10-11T16:01:12.263Z,15.30
2017-10-11T16:03:39.779Z,15.20
2017-10-11T16:06:07.283Z,15.10
2017-10-11T16:08:34.820Z,15.00
2017-10-11T16:11:02.323Z,14.90
2017-10-11T16:13:29.848Z,14.90
2017-10-11T16:15:57.347Z,14.60
2017-10-11T16:18:24.865Z,14.30
2017-10-11T16:20:52.375Z,14.20
2017-10-11T16:23:19.896Z,14.10
2017-10-11T16:25:48.162Z,13.70
2017-10-11T16:28:15.684Z,13.70
2017-10-11T16:30:43.951Z,13.60
2017-10-11T16:33:11.478Z,13.60
2017-10-11T16:35:39.743Z,13.30
2017-10-11T16:38:08.032Z,13.20
2017-10-11T16:40:36.307Z,13.00
2017-10-11T16:43:04.587Z,12.80
2017-10-11T16:45:32.091Z,12.80
2017-10-11T16:47:59.620Z,12.70
2017-10-11T16:50:27.132Z,12.60
2017-10-11T16:52:54.651Z,12.50
2017-10-11T16:55:22.153Z,12.40
2017-10-11T16:57:49.671Z,12.40
2017-10-11T17:00:17.941Z,12.20
2017-10-11T17:02:45.459Z,12.20
2017-10-11T17:05:13.728Z,12.10
2017-10-11T17:07:42.016Z,12.10
2017-10-11T17:10:10.291Z,11.90
2017-10-11T17:12:37.800Z,11.90
2017-10-11T17:15:05.324Z,11.90
2017-10-11T17:17:32.828Z,11.80
2017-10-11T17:20:00.351Z,11.70
2017-10-11T17:22:27.851Z,11.60
2017-10-11T17:24:55.367Z,11.50
2017-10-11T17:27:22.867Z,11.30
2017-10-11T17:29:50.380Z,11.30
2017-10-11T17:32:17.878Z,11.30
2017-10-11T17:34:45.395Z,11.30
2017-10-11T17:37:12.899Z,11.30
2017-10-11T17:39:40.415Z,11.20
2017-10-11T17:42:07.915Z,11.20
2017-10-11T17:44:35.439Z,11.10
2017-10-11T17:47:02.940Z,11.10
2017-10-11T17:49:30.467Z,11.10
2017-10-11T17:51:57.978Z,11.00
2017-10-11T17:54:26.271Z,10.90
2017-10-11T17:56:53.774Z,10.90
2017-10-11T17:59:21.299Z,10.90
2017-10-11T18:01:48.792Z,10.80
2017-10-11T18:04:16.303Z,10.90
2017-10-11T18:06:44.036Z,10.80
2017-10-11T18:09:12.320Z,10.80
2017-10-11T18:11:40.579Z,10.70
2017-10-11T18:14:08.094Z,10.70
2017-10-11T18:16:35.597Z,10.70
2017-10-11T18:19:03.119Z,10.70
2017-10-11T18:21:30.629Z,10.60
2017-10-11T18:23:58.923Z,10.50
2017-10-11T18:26:26.419Z,10.50
2017-10-11T18:28:53.955Z,10.40
2017-10-11T18:31:21.458Z,10.40
2017-10-11T18:33:48.959Z,10.40
2017-10-11T18:36:16.478Z,10.30
2017-10-11T18:38:43.974Z,10.30
2017-10-11T18:41:11.500Z,10.20
2017-10-11T18:43:39.770Z,10.10
2017-10-11T18:46:07.286Z,10.10
2017-10-11T18:48:34.784Z,10.10
2017-10-11T18:51:02.299Z,9.90
2017-10-11T18:53:29.802Z,9.90
2017-10-11T18:55:57.318Z,9.80
2017-10-11T18:58:24.811Z,9.80
2017-10-11T19:00:52.307Z,9.80
2017-10-11T19:03:19.823Z,9.80
2017-10-11T19:05:47.319Z,9.80
2017-10-11T19:08:14.835Z,9.70
2017-10-11T19:10:42.327Z,9.60
2017-10-11T19:13:10.612Z,9.60
2017-10-11T19:15:38.106Z,9.60
2017-10-11T19:18:05.620Z,9.60
2017-10-11T19:20:33.880Z,9.60
2017-10-11T19:23:02.184Z,9.60
2017-10-11T19:25:29.679Z,9.60
2017-10-11T19:27:57.176Z,9.60
2017-10-11T19:30:25.465Z,9.50
2017-10-11T19:32:53.732Z,9.50
2017-10-11T19:35:22.020Z,9.50
2017-10-11T19:37:49.531Z,9.50
2017-10-11T19:40:17.050Z,9.40
2017-10-11T19:42:44.546Z,9.50
2017-10-11T19:45:12.076Z,9.40
2017-10-11T19:47:39.575Z,9.40
2017-10-11T19:50:07.092Z,9.30
2017-10-11T19:52:34.589Z,9.40
2017-10-11T19:55:02.123Z,9.40
2017-10-11T19:57:29.615Z,9.40
2017-10-11T19:59:57.918Z,9.40
2017-10-11T20:02:25.451Z,9.40
2017-10-11T20:04:52.951Z,9.50
2017-10-11T20:07:20.475Z,9.40
2017-10-11T20:09:48.752Z,9.40
2017-10-11T20:12:17.035Z,9.40
2017-10-11T20:14:45.290Z,9.40
2017-10-11T20:17:12.819Z,9.40
2017-10-11T20:19:41.092Z,9.30
2017-10-11T20:22:08.602Z,9.30
2017-10-11T20:24:36.921Z,9.30
2017-10-11T20:27:04.494Z,9.20
2017-10-11T20:29:32.093Z,9.30
2017-10-11T20:32:00.462Z,9.20
2017-10-11T20:34:29.024Z,9.30
2017-10-11T20:36:56.558Z,9.30
2017-10-11T20:39:24.074Z,9.30
2017-10-11T20:41:52.339Z,9.30
2017-10-11T20:44:19.860Z,9.20
2017-10-11T20:46:47.367Z,9.30
2017-10-11T20:49:15.648Z,9.30
2017-10-11T20:51:43.915Z,9.30
2017-10-11T20:54:12.195Z,9.30
2017-10-11T20:56:40.453Z,9.30
2017-10-11T20:59:07.976Z,9.30
2017-10-11T21:01:35.515Z,9.30
2017-10-11T21:04:03.108Z,9.30
2017-10-11T21:06:32.140Z,9.40
2017-10-11T21:09:00.496Z,9.40
2017-10-11T21:11:27.992Z,9.40
2017-10-11T21:13:55.511Z,9.40
2017-10-11T21:16:23.007Z,9.40
2017-10-11T21:18:50.523Z,9.30
2017-10-11T21:21:18.020Z,9.20
2017-10-11T21:23:46.327Z,9.00
2017-10-11T21:26:13.830Z,9.00
2017-10-11T21:28:41.322Z,9.00
2017-10-11T21:31:08.843Z,8.90
2017-10-11T21:33:36.335Z,8.90
2017-10-11T21:36:03.842Z,9.00
2017-10-11T21:38:32.108Z,9.10
2017-10-11T21:40:59.622Z,9.10
2017-10-11T21:43:27.115Z,9.20
2017-10-11T21:45:54.626Z,9.50
2017-10-11T21:48:22.892Z,9.80
2017-10-11T21:50:50.408Z,9.70
2017-10-11T21:53:17.903Z,9.80
2017-10-11T21:55:45.419Z,9.80
2017-10-11T21:58:12.911Z,9.80
2017-10-11T22:00:40.659Z,9.80
2017-10-11T22:03:08.152Z,9.70
2017-10-11T22:05:36.430Z,9.60
2017-10-11T22:08:04.698Z,9.40
2017-10-11T22:10:32.978Z,9.20
2017-10-11T22:13:01.239Z,9.10
2017-10-11T22:15:28.761Z,9.10
2017-10-11T22:17:56.264Z,9.00
2017-10-11T22:20:23.775Z,9.00
2017-10-11T22:22:51.279Z,9.00
2017-10-11T22:25:18.800Z,9.10
2017-10-11T22:27:47.062Z,9.00
2017-10-11T22:30:14.579Z,9.00
2017-10-11T22:32:42.842Z,9.00
2017-10-11T22:35:10.358Z,9.00
2017-10-11T22:37:37.856Z,9.00
2017-10-11T22:40:05.367Z,8.90
2017-10-11T22:42:32.863Z,8.90
2017-10-11T22:45:00.376Z,8.80
2017-10-11T22:47:27.867Z,8.70
2017-10-11T22:49:56.146Z,8.50
2017-10-11T22:52:23.647Z,8.50
2017-10-11T22:54:51.927Z,8.50
2017-10-11T22:57:20.195Z,8.50
2017-10-11T22:59:48.480Z,8.40
2017-10-11T23:02:15.976Z,8.40
2017-10-11T23:04:43.495Z,8.40
2017-10-11T23:07:10.987Z,8.30
2017-10-11T23:09:38.507Z,8.30
2017-10-11T23:12:06.774Z,8.30
2017-10-11T23:14:35.051Z,8.30
2017-10-11T23:17:03.310Z,8.30
2017-10-11T23:19:30.827Z,8.30
2017-10-11T23:21:58.328Z,8.30
2017-10-11T23:24:26.615Z,8.20
2017-10-11T23:26:54.870Z,8.20
2017-10-11T23:29:22.383Z,8.20
2017-10-11T23:31:49.887Z,8.20
2017-10-11T23:34:17.379Z,8.30
2017-10-11T23:36:44.895Z,8.30
2017-10-11T23:39:12.384Z,8.30
2017-10-11T23:41:40.667Z,8.40
2017-10-11T23:44:08.935Z,8.30
2017-10-11T23:46:37.217Z,8.30
2017-10-11T23:49:05.484Z,8.40
2017-10-11T23:51:33.776Z,8.40
2017-10-11T23:54:01.275Z,8.40
2017-10-11T23:56:28.791Z,8.40
2017-10-11T23:58:56.299Z,8.50
